createdAt,value
2022-11-19T00:02:40.064Z,98141.75
2022-11-19T00:05:26.472Z,98179.44
2022-11-19T00:08:19.157Z,98180.28
2022-11-19T00:11:11.924Z,98155.44
2022-11-19T00:13:58.260Z,98146.84
2022-11-19T00:16:45.373Z,98155.44
2022-11-19T00:19:31.663Z,98159.72
2022-11-19T00:22:17.803Z,98171.72
2022-11-19T00:25:04.636Z,98175.16
2022-11-19T00:27:51.253Z,98173.44
2022-11-19T00:30:52.669Z,98170.84
2022-11-19T00:33:40.698Z,98188.00
2022-11-19T00:36:26.896Z,98179.44
2022-11-19T00:39:13.068Z,98174.28
2022-11-19T00:41:59.267Z,98143.44
2022-11-19T00:44:46.080Z,98144.31
2022-11-19T00:47:32.939Z,98168.28
2022-11-19T00:50:19.336Z,98181.13
2022-11-19T00:53:05.653Z,98155.41
2022-11-19T00:55:52.000Z,98160.59
2022-11-19T00:58:39.405Z,98180.28
2022-11-19T01:01:26.410Z,98191.44
2022-11-19T01:04:13.220Z,98188.00
2022-11-19T01:06:59.640Z,98170.84
2022-11-19T01:09:47.246Z,98152.03
2022-11-19T01:12:53.616Z,98173.44
2022-11-19T01:15:40.011Z,98176.00
2022-11-19T01:18:27.815Z,98162.28
2022-11-19T01:21:15.849Z,98182.00
2022-11-19T01:24:03.306Z,98184.56
2022-11-19T01:26:49.809Z,98159.72
2022-11-19T01:29:35.947Z,98163.16
2022-11-19T01:32:22.344Z,98183.72
2022-11-19T01:35:09.019Z,98197.41
2022-11-19T01:37:55.399Z,98167.44
2022-11-19T01:40:43.829Z,98159.72
2022-11-19T01:43:47.080Z,98192.28
2022-11-19T01:46:38.507Z,98179.41
2022-11-19T01:49:24.925Z,98161.44
2022-11-19T01:52:11.405Z,98175.13
2022-11-19T01:54:57.987Z,98180.31
2022-11-19T01:57:45.032Z,98193.16
2022-11-19T02:00:31.587Z,98176.00
2022-11-19T02:03:18.953Z,98189.72
2022-11-19T02:06:06.257Z,98168.28
2022-11-19T02:08:53.076Z,98185.41
2022-11-19T02:11:51.232Z,98191.41
2022-11-19T02:15:22.891Z,98189.69
2022-11-19T02:18:21.158Z,98188.88
2022-11-19T02:21:07.856Z,98188.00
2022-11-19T02:24:11.506Z,98197.41
2022-11-19T02:27:15.692Z,98181.91
2022-11-19T02:30:08.639Z,98195.59
2022-11-19T02:33:04.945Z,98198.19
2022-11-19T02:36:12.171Z,98205.06
2022-11-19T02:39:08.012Z,98166.47
2022-11-19T02:42:04.148Z,98206.72
2022-11-19T02:44:58.593Z,98205.09
2022-11-19T02:47:49.596Z,98211.13
2022-11-19T02:51:00.040Z,98211.13
2022-11-19T02:53:49.611Z,98202.56
2022-11-19T02:56:58.723Z,98194.84
2022-11-19T03:00:12.264Z,98192.25
2022-11-19T03:03:29.445Z,98211.13
2022-11-19T03:06:20.369Z,98206.00
2022-11-19T03:09:06.889Z,98194.88
2022-11-19T03:12:07.819Z,98191.44
2022-11-19T03:15:35.745Z,98185.41
2022-11-19T03:18:28.525Z,98188.84
2022-11-19T03:21:28.436Z,98210.28
2022-11-19T03:24:21.496Z,98181.13
2022-11-19T03:27:21.617Z,98209.44
2022-11-19T03:30:09.700Z,98199.13
2022-11-19T03:33:14.793Z,98217.13
2022-11-19T03:36:06.913Z,98217.16
2022-11-19T03:38:58.002Z,98205.16
2022-11-19T03:41:48.573Z,98191.44
2022-11-19T03:44:43.916Z,98224.88
2022-11-19T03:47:35.668Z,98198.28
2022-11-19T03:50:49.811Z,98224.84
2022-11-19T03:53:36.450Z,98203.41
2022-11-19T03:56:26.181Z,98233.41
2022-11-19T03:59:12.988Z,98202.56
2022-11-19T04:02:03.290Z,98220.56
2022-11-19T04:04:49.833Z,98220.56
2022-11-19T04:07:36.454Z,98208.56
2022-11-19T04:10:22.869Z,98217.13
2022-11-19T04:13:09.341Z,98224.88
2022-11-19T04:15:55.597Z,98215.41
2022-11-19T04:18:42.032Z,98195.72
2022-11-19T04:21:28.577Z,98176.88
2022-11-19T04:24:15.536Z,98197.41
2022-11-19T04:27:02.262Z,98202.53
2022-11-19T04:29:48.540Z,98224.84
2022-11-19T04:32:34.576Z,98231.72
2022-11-19T04:35:21.868Z,98230.84
2022-11-19T04:38:08.273Z,98210.25
2022-11-19T04:40:54.448Z,98217.97
2022-11-19T04:43:40.645Z,98229.94
2022-11-19T04:46:27.145Z,98235.97
2022-11-19T04:49:13.541Z,98220.50
2022-11-19T04:52:00.088Z,98194.81
2022-11-19T04:54:46.339Z,98227.38
2022-11-19T04:57:32.895Z,98244.53
2022-11-19T05:00:19.369Z,98229.97
2022-11-19T05:03:06.137Z,98221.41
2022-11-19T05:05:52.690Z,98198.25
2022-11-19T05:08:39.052Z,98235.13
2022-11-19T05:11:25.425Z,98223.13
2022-11-19T05:14:11.597Z,98219.69
2022-11-19T05:16:57.773Z,98244.56
2022-11-19T05:19:43.993Z,98214.56
2022-11-19T05:22:30.453Z,98232.56
2022-11-19T05:25:16.773Z,98237.69
2022-11-19T05:28:02.956Z,98230.81
2022-11-19T05:30:49.362Z,98249.66
2022-11-19T05:33:35.702Z,98248.81
2022-11-19T05:36:21.800Z,98233.38
2022-11-19T05:39:08.053Z,98202.53
2022-11-19T05:41:54.279Z,98231.66
2022-11-19T05:44:40.535Z,98248.75
2022-11-19T05:47:27.119Z,98254.78
2022-11-19T05:50:13.635Z,98243.63
2022-11-19T05:53:00.043Z,98222.28
2022-11-19T05:55:46.263Z,98253.13
2022-11-19T05:58:32.766Z,98264.28
2022-11-19T06:01:26.557Z,98260.00
2022-11-19T06:04:12.965Z,98261.72
2022-11-19T06:06:59.468Z,98243.72
2022-11-19T06:09:46.223Z,98229.16
2022-11-19T06:12:32.663Z,98260.88
2022-11-19T06:15:18.852Z,98268.59
2022-11-19T06:18:05.205Z,98242.88
2022-11-19T06:20:51.368Z,98266.88
2022-11-19T06:23:37.526Z,98256.59
2022-11-19T06:26:27.820Z,98242.00
2022-11-19T06:29:15.131Z,98259.13
2022-11-19T06:32:01.379Z,98253.97
2022-11-19T06:34:47.755Z,98250.53
2022-11-19T06:37:34.197Z,98283.13
2022-11-19T06:40:20.524Z,98260.81
2022-11-19T06:43:06.891Z,98266.75
2022-11-19T06:45:54.446Z,98278.69
2022-11-19T06:48:41.201Z,98281.25
2022-11-19T06:51:27.552Z,98294.22
2022-11-19T06:54:13.834Z,98301.94
2022-11-19T06:57:00.652Z,98276.22
2022-11-19T06:59:47.354Z,98256.44
2022-11-19T07:02:33.619Z,98289.09
2022-11-19T07:05:19.941Z,98282.25
2022-11-19T07:08:06.189Z,98307.16
2022-11-19T07:10:52.628Z,98290.84
2022-11-19T07:13:57.132Z,98280.59
2022-11-19T07:16:43.644Z,98296.91
2022-11-19T07:19:30.284Z,98285.75
2022-11-19T07:22:16.809Z,98299.44
2022-11-19T07:25:03.098Z,98296.00
2022-11-19T07:27:49.449Z,98290.03
2022-11-19T07:30:35.768Z,98294.28
2022-11-19T07:33:22.059Z,98298.59
2022-11-19T07:36:13.933Z,98328.63
2022-11-19T07:39:04.939Z,98326.03
2022-11-19T07:42:10.061Z,98329.47
2022-11-19T07:45:00.098Z,98313.13
2022-11-19T07:47:46.398Z,98319.13
2022-11-19T07:50:32.656Z,98300.25
2022-11-19T07:53:19.089Z,98295.09
2022-11-19T07:56:05.708Z,98320.84
2022-11-19T07:58:52.060Z,98334.59
2022-11-19T08:01:38.857Z,98333.72
2022-11-19T08:04:28.440Z,98343.19
2022-11-19T08:07:14.786Z,98339.72
2022-11-19T08:10:01.250Z,98338.00
2022-11-19T08:13:03.100Z,98314.81
2022-11-19T08:15:49.492Z,98325.16
2022-11-19T08:18:36.326Z,98350.88
2022-11-19T08:21:22.683Z,98318.28
2022-11-19T08:24:10.728Z,98324.31
2022-11-19T08:26:57.087Z,98321.72
2022-11-19T08:29:43.132Z,98356.88
2022-11-19T08:32:29.332Z,98353.44
2022-11-19T08:35:15.716Z,98339.69
2022-11-19T08:38:02.300Z,98361.94
2022-11-19T08:41:14.971Z,98361.09
2022-11-19T08:44:02.214Z,98358.47
2022-11-19T08:46:48.680Z,98364.44
2022-11-19T08:49:34.837Z,98356.63
2022-11-19T08:52:21.267Z,98341.13
2022-11-19T08:55:08.462Z,98367.66
2022-11-19T08:58:00.720Z,98377.97
2022-11-19T09:00:47.091Z,98355.63
2022-11-19T09:03:33.550Z,98371.03
2022-11-19T09:06:20.048Z,98378.66
2022-11-19T09:09:06.157Z,98364.13
2022-11-19T09:11:52.430Z,98357.16
2022-11-19T09:14:38.696Z,98360.53
2022-11-19T09:17:24.982Z,98381.13
2022-11-19T09:20:11.488Z,98361.47
2022-11-19T09:22:58.090Z,98388.09
2022-11-19T09:25:44.314Z,98392.34
2022-11-19T09:28:31.310Z,98395.00
2022-11-19T09:31:19.658Z,98395.03
2022-11-19T09:34:05.845Z,98400.19
2022-11-19T09:36:52.107Z,98375.38
2022-11-19T09:39:38.791Z,98388.22
2022-11-19T09:42:27.846Z,98403.69
2022-11-19T09:45:14.565Z,98404.66
2022-11-19T09:48:20.656Z,98414.03
2022-11-19T09:51:12.607Z,98416.66
2022-11-19T09:54:04.288Z,98378.00
2022-11-19T09:56:54.538Z,98414.03
2022-11-19T09:59:42.099Z,98377.16
2022-11-19T10:02:29.493Z,98371.13
2022-11-19T10:05:27.566Z,98408.00
2022-11-19T10:08:25.990Z,98415.69
2022-11-19T10:11:37.426Z,98408.81
2022-11-19T10:14:36.409Z,98408.75
2022-11-19T10:17:28.616Z,98409.50
2022-11-19T10:20:30.392Z,98400.84
2022-11-19T10:24:00.717Z,98406.91
2022-11-19T10:27:08.320Z,98398.28
2022-11-19T10:29:58.346Z,98398.22
2022-11-19T10:32:53.503Z,98351.09
2022-11-19T10:35:48.323Z,98402.59
2022-11-19T10:39:01.376Z,98400.97
2022-11-19T10:41:57.824Z,98400.06
2022-11-19T10:44:56.502Z,98398.41
2022-11-19T10:47:49.180Z,98396.75
2022-11-19T10:50:35.804Z,98395.03
2022-11-19T10:53:29.415Z,98389.91
2022-11-19T10:56:22.077Z,98352.16
2022-11-19T10:59:17.401Z,98355.66
2022-11-19T11:02:25.009Z,98388.22
2022-11-19T11:05:17.216Z,98357.31
2022-11-19T11:08:11.210Z,98348.81
2022-11-19T11:10:57.840Z,98383.16
2022-11-19T11:14:02.969Z,98350.63
2022-11-19T11:16:49.385Z,98385.00
2022-11-19T11:19:36.880Z,98352.38
2022-11-19T11:22:23.988Z,98370.38
2022-11-19T11:25:24.943Z,98374.66
2022-11-19T11:28:13.211Z,98372.97
2022-11-19T11:31:02.056Z,98356.72
2022-11-19T11:33:56.362Z,98367.81
2022-11-19T11:36:44.210Z,98354.97
2022-11-19T11:39:40.047Z,98377.31
2022-11-19T11:42:28.980Z,98377.25
2022-11-19T11:45:36.823Z,98373.78
2022-11-19T11:48:23.484Z,98369.47
2022-11-19T11:51:34.466Z,98374.63
2022-11-19T11:54:21.714Z,98340.31
2022-11-19T11:57:17.380Z,98347.16
2022-11-19T12:00:40.233Z,98367.78
2022-11-19T12:03:26.730Z,98318.09
2022-11-19T12:06:16.860Z,98372.94
2022-11-19T12:09:15.755Z,98347.25
2022-11-19T12:12:13.220Z,98348.97
2022-11-19T12:15:30.228Z,98373.84
2022-11-19T12:18:27.239Z,98378.19
2022-11-19T12:21:44.480Z,98380.75
2022-11-19T12:24:57.169Z,98376.47
2022-11-19T12:27:55.668Z,98378.22
2022-11-19T12:31:10.064Z,98374.81
2022-11-19T12:34:18.955Z,98382.53
2022-11-19T12:37:22.855Z,98378.22
2022-11-19T12:40:38.401Z,98352.50
2022-11-19T12:43:50.323Z,98339.63
2022-11-19T12:47:00.539Z,98380.00
2022-11-19T12:50:11.296Z,98390.22
2022-11-19T12:53:12.914Z,98391.06
2022-11-19T12:56:15.157Z,98396.22
2022-11-19T12:59:11.955Z,98391.88
2022-11-19T13:02:02.922Z,98382.47
2022-11-19T13:04:54.797Z,98355.03
2022-11-19T13:07:55.713Z,98364.44
2022-11-19T13:10:53.582Z,98395.31
2022-11-19T13:13:47.108Z,98377.34
2022-11-19T13:16:35.092Z,98351.63
2022-11-19T13:19:38.136Z,98377.41
2022-11-19T13:22:33.750Z,98390.22
2022-11-19T13:26:01.597Z,98391.13
2022-11-19T13:28:55.589Z,98386.00
2022-11-19T13:31:52.205Z,98367.16
2022-11-19T13:35:12.411Z,98336.28
2022-11-19T13:38:26.138Z,98400.59
2022-11-19T13:41:27.227Z,98392.03
2022-11-19T13:44:33.062Z,98383.44
2022-11-19T13:47:25.289Z,98374.88
2022-11-19T13:50:22.409Z,98379.16
2022-11-19T13:53:25.885Z,98391.97
2022-11-19T13:56:17.117Z,98356.81
2022-11-19T13:59:05.315Z,98345.69
2022-11-19T14:02:28.765Z,98381.66
2022-11-19T14:05:30.435Z,98385.94
2022-11-19T14:08:54.634Z,98385.94
2022-11-19T14:12:19.080Z,98385.94
2022-11-19T14:15:52.829Z,98378.22
2022-11-19T14:19:02.736Z,98361.13
2022-11-19T14:22:12.916Z,98362.81
2022-11-19T14:25:17.896Z,98353.41
2022-11-19T14:28:41.477Z,98378.25
2022-11-19T14:31:27.640Z,98370.53
2022-11-19T14:34:29.838Z,98379.97
2022-11-19T14:37:22.901Z,98369.66
2022-11-19T14:40:12.386Z,98396.25
2022-11-19T14:43:20.456Z,98404.91
2022-11-19T14:46:09.622Z,98409.25
2022-11-19T14:49:02.105Z,98403.22
2022-11-19T14:51:53.668Z,98331.16
2022-11-19T14:54:44.793Z,98378.34
2022-11-19T14:57:37.817Z,98412.69
2022-11-19T15:00:23.910Z,98408.41
2022-11-19T15:03:27.345Z,98386.97
2022-11-19T15:06:17.650Z,98417.88
2022-11-19T15:09:04.250Z,98411.88
2022-11-19T15:11:56.891Z,98435.06
2022-11-19T15:15:03.109Z,98400.69
2022-11-19T15:18:04.433Z,98398.97
2022-11-19T15:21:08.732Z,98423.00
2022-11-19T15:24:13.428Z,98426.41
2022-11-19T15:27:29.532Z,98380.84
2022-11-19T15:30:40.644Z,98418.63
2022-11-19T15:33:35.256Z,98401.47
2022-11-19T15:36:28.667Z,98429.78
2022-11-19T15:39:45.526Z,98438.31
2022-11-19T15:42:40.943Z,98427.97
2022-11-19T15:45:33.125Z,98438.22
2022-11-19T15:48:35.704Z,98434.75
2022-11-19T15:51:23.144Z,98412.31
2022-11-19T15:54:12.276Z,98440.56
2022-11-19T15:57:02.834Z,98434.50
2022-11-19T15:59:59.764Z,98406.91
2022-11-19T16:02:49.552Z,98442.16
2022-11-19T16:05:36.132Z,98442.91
2022-11-19T16:08:22.324Z,98433.41
2022-11-19T16:11:27.292Z,98442.81
2022-11-19T16:14:50.766Z,98385.97
2022-11-19T16:17:46.994Z,98441.81
2022-11-19T16:20:34.042Z,98449.44
2022-11-19T16:23:25.786Z,98445.19
2022-11-19T16:26:12.095Z,98445.22
2022-11-19T16:29:01.144Z,98417.56
2022-11-19T16:31:53.130Z,98427.84
2022-11-19T16:34:40.472Z,98428.69
2022-11-19T16:37:26.800Z,98457.81
2022-11-19T16:40:16.568Z,98431.09
2022-11-19T16:43:02.910Z,98457.81
2022-11-19T16:45:49.367Z,98438.91
2022-11-19T16:48:42.444Z,98454.38
2022-11-19T16:51:52.862Z,98440.53
2022-11-19T16:54:46.895Z,98471.38
2022-11-19T16:57:33.215Z,98443.88
2022-11-19T17:00:22.239Z,98454.25
2022-11-19T17:03:20.614Z,98468.09
2022-11-19T17:06:17.627Z,98448.16
2022-11-19T17:09:06.385Z,98476.53
2022-11-19T17:12:13.302Z,98482.59
2022-11-19T17:15:01.584Z,98438.63
2022-11-19T17:17:48.122Z,98458.38
2022-11-19T17:20:34.765Z,98490.25
2022-11-19T17:23:34.468Z,98491.09
2022-11-19T17:26:25.651Z,98451.56
2022-11-19T17:29:15.913Z,98486.84
2022-11-19T17:32:03.848Z,98461.97
2022-11-19T17:34:55.024Z,98461.97
2022-11-19T17:37:41.510Z,98458.44
2022-11-19T17:40:27.756Z,98493.66
2022-11-19T17:43:34.652Z,98497.03
2022-11-19T17:46:22.384Z,98476.22
2022-11-19T17:49:08.944Z,98499.56
2022-11-19T17:51:55.406Z,98482.38
2022-11-19T17:54:42.080Z,98500.50
2022-11-19T17:57:28.631Z,98493.75
2022-11-19T18:00:16.090Z,98505.59
2022-11-19T18:03:03.335Z,98491.81
2022-11-19T18:05:50.180Z,98518.47
2022-11-19T18:08:37.879Z,98468.50
2022-11-19T18:11:25.516Z,98511.44
2022-11-19T18:14:12.804Z,98490.03
2022-11-19T18:16:59.344Z,98484.91
2022-11-19T18:19:45.701Z,98467.56
2022-11-19T18:22:32.134Z,98511.59
2022-11-19T18:25:19.815Z,98481.31
2022-11-19T18:28:06.573Z,98516.63
2022-11-19T18:30:53.187Z,98476.91
2022-11-19T18:33:41.676Z,98489.81
2022-11-19T18:36:27.976Z,98482.31
2022-11-19T18:39:14.489Z,98497.84
2022-11-19T18:42:00.750Z,98488.38
2022-11-19T18:44:46.963Z,98507.34
2022-11-19T18:47:33.154Z,98503.88
2022-11-19T18:50:19.731Z,98529.66
2022-11-19T18:53:06.260Z,98511.63
2022-11-19T18:55:53.044Z,98529.53
2022-11-19T18:58:39.304Z,98530.25
2022-11-19T19:01:26.362Z,98485.69
2022-11-19T19:04:14.770Z,98533.03
2022-11-19T19:07:02.587Z,98515.72
2022-11-19T19:09:50.616Z,98489.94
2022-11-19T19:12:38.363Z,98540.00
2022-11-19T19:15:25.408Z,98545.13
2022-11-19T19:18:11.696Z,98546.88
2022-11-19T19:20:58.160Z,98547.69
2022-11-19T19:23:44.511Z,98538.22
2022-11-19T19:26:31.114Z,98550.31
2022-11-19T19:29:18.078Z,98559.53
2022-11-19T19:32:04.951Z,98568.09
2022-11-19T19:34:52.529Z,98572.25
2022-11-19T19:37:42.029Z,98568.88
2022-11-19T19:40:28.494Z,98562.19
2022-11-19T19:43:15.133Z,98561.22
2022-11-19T19:46:09.738Z,98560.09
2022-11-19T19:48:56.802Z,98574.66
2022-11-19T19:51:43.104Z,98579.75
2022-11-19T19:54:29.576Z,98574.56
2022-11-19T19:57:16.340Z,98578.69
2022-11-19T20:00:03.126Z,98578.34
2022-11-19T20:02:58.573Z,98591.22
2022-11-19T20:05:49.687Z,98588.38
2022-11-19T20:08:36.482Z,98596.22
2022-11-19T20:11:25.607Z,98596.97
2022-11-19T20:14:11.976Z,98601.97
2022-11-19T20:16:58.683Z,98600.44
2022-11-19T20:19:45.299Z,98604.66
2022-11-19T20:22:31.481Z,98581.47
2022-11-19T20:25:26.140Z,98601.00
2022-11-19T20:28:13.021Z,98601.00
2022-11-19T20:31:11.381Z,98614.97
2022-11-19T20:34:00.779Z,98605.44
2022-11-19T20:36:47.327Z,98537.13
2022-11-19T20:39:33.972Z,98604.59
2022-11-19T20:42:39.307Z,98579.72
2022-11-19T20:45:25.594Z,98612.16
2022-11-19T20:48:12.578Z,98589.13
2022-11-19T20:50:59.310Z,98590.91
2022-11-19T20:53:46.043Z,98608.22
2022-11-19T20:56:32.624Z,98606.63
2022-11-19T20:59:20.384Z,98614.00
2022-11-19T21:02:09.105Z,98612.16
2022-11-19T21:04:57.264Z,98611.94
2022-11-19T21:07:43.713Z,98609.25
2022-11-19T21:10:30.227Z,98607.59
2022-11-19T21:13:16.526Z,98610.09
2022-11-19T21:16:13.041Z,98616.78
2022-11-19T21:18:59.975Z,98619.38
2022-11-19T21:21:46.302Z,98586.53
2022-11-19T21:24:32.993Z,98611.44
